Impacts TAF Board
For situational awareness. Not to be used for flight planning purposes.
IDs:

KRSL - Russell Muni, KS, US

Issued at 1120 UTC 20 Jul 2019
Updated at 1344 UTC 20 Jul 2019
Potential Impact None Slight Moderate High
Time1253Z 20/14Z 20/15Z 20/16Z 20/17Z 20/18Z 20/19Z 20/20Z 20/21Z 20/22Z 20/23Z 21/00Z 21/01Z 21/02Z>>
Type OBS PRVL PRVL PRVL PRVL PRVL PRVL PRVL PRVL PRVL PRVL PRVL PRVL PRVL
VIS 10 >6 >6 >6 >6 >6 >6 >6 >6 >6 >6 >6 >6 >6
CIG -- -- -- -- -- -- -- -- -- -- -- -- -- 250
Cover CLR FEW FEW FEW FEW FEW FEW FEW FEW FEW FEW SCT SCT BKN
FltCat VFR VFR VFR VFR VFR VFR VFR VFR VFR VFR VFR VFR VFR VFR
WX -- -- -- -- -- -- -- -- -- -- -- -- -- --
WDir 180 180 180 180 180 180 180 180 180 180 180 150 150 VRB
WSpd 16 15 15 15 15 15 22 22 22 22 22 13 13 5
WGst -- -- 22 22 22 22 33 33 33 33 33 -- -- --
Raw TAF
KRSL 201120Z 2012/2112 18015KT P6SM FEW250
  FM201500 18015G22KT P6SM FEW250
  FM201900 18022G33KT P6SM FEW250
  FM210000 15013KT P6SM SCT250
  FM210200 VRB05KT P6SM BKN250
  FM210600 02012KT P6SM BKN250
  FM211100 03012KT P6SM BKN045


Raw METAR
KRSL 201253Z AUTO 18016KT 10SM CLR 27/18 A2975 RMK AO2 SLP049 T02670178
KRSL 201153Z AUTO 17016KT 10SM CLR 25/18 A2974 RMK AO2 SLP046 T02500178 10289 20250 56001
KRSL 201053Z AUTO 17013KT 10SM CLR 26/17 A2974 RMK AO2 SLP045 T02560172

METAR Board
Radar Display
Forecast Discussion
For situational awareness. Not to be used for flight planning purposes.